sensor_id;sensor_type;location;lat;lon;timestamp;pressure;altitude;pressure_sealevel;temperature;humidity
9110;BME280;4590;51.462;6.692;2022-09-17T00:04:29;100996.63;;;13.60;65.56
9110;BME280;4590;51.462;6.692;2022-09-17T00:06:55;101007.69;;;13.60;65.30
9110;BME280;4590;51.462;6.692;2022-09-17T00:09:21;101006.88;;;13.60;65.67
9110;BME280;4590;51.462;6.692;2022-09-17T00:16:57;101025.38;;;13.51;66.21
9110;BME280;4590;51.462;6.692;2022-09-17T00:19:23;101017.41;;;13.49;66.60
9110;BME280;4590;51.462;6.692;2022-09-17T00:21:50;101013.50;;;13.50;66.54
9110;BME280;4590;51.462;6.692;2022-09-17T00:24:16;101018.22;;;13.50;66.95
9110;BME280;4590;51.462;6.692;2022-09-17T00:26:41;101020.78;;;13.38;69.12
9110;BME280;4590;51.462;6.692;2022-09-17T00:29:08;101018.03;;;13.46;66.99
9110;BME280;4590;51.462;6.692;2022-09-17T00:31:33;101011.50;;;13.33;69.95
9110;BME280;4590;51.462;6.692;2022-09-17T00:34:00;101008.75;;;13.42;67.10
9110;BME280;4590;51.462;6.692;2022-09-17T00:36:27;100998.00;;;13.41;67.25
9110;BME280;4590;51.462;6.692;2022-09-17T00:38:57;101006.63;;;13.39;67.40
9110;BME280;4590;51.462;6.692;2022-09-17T00:41:28;101007.13;;;13.41;67.42
9110;BME280;4590;51.462;6.692;2022-09-17T00:43:57;101001.59;;;13.41;67.50
9110;BME280;4590;51.462;6.692;2022-09-17T00:46:31;101003.38;;;13.37;67.62
9110;BME280;4590;51.462;6.692;2022-09-17T00:49:02;101003.38;;;13.37;67.62
9110;BME280;4590;51.462;6.692;2022-09-17T00:51:38;101008.72;;;13.33;67.65
9110;BME280;4590;51.462;6.692;2022-09-17T00:54:07;101011.69;;;13.37;67.87
9110;BME280;4590;51.462;6.692;2022-09-17T00:56:37;101015.06;;;13.34;67.85
9110;BME280;4590;51.462;6.692;2022-09-17T00:59:04;101017.84;;;13.34;67.50
9110;BME280;4590;51.462;6.692;2022-09-17T01:01:31;101018.34;;;13.36;67.71
9110;BME280;4590;51.462;6.692;2022-09-17T01:03:58;101011.16;;;13.35;67.71
9110;BME280;4590;51.462;6.692;2022-09-17T01:06:32;101021.53;;;13.29;67.78
9110;BME280;4590;51.462;6.692;2022-09-17T01:09:18;101010.00;;;13.27;67.56
9110;BME280;4590;51.462;6.692;2022-09-17T01:15:09;101023.78;;;13.19;67.82
9110;BME280;4590;51.462;6.692;2022-09-17T01:17:44;101026.22;;;13.20;67.61
9110;BME280;4590;51.462;6.692;2022-09-17T01:26:18;101019.44;;;13.04;67.99
9110;BME280;4590;51.462;6.692;2022-09-17T01:29:00;101026.25;;;13.07;67.82
9110;BME280;4590;51.462;6.692;2022-09-17T01:34:15;101013.09;;;13.04;67.95
9110;BME280;4590;51.462;6.692;2022-09-17T01:36:53;101011.97;;;13.05;67.60
9110;BME280;4590;51.462;6.692;2022-09-17T01:39:29;101019.44;;;13.04;67.88
9110;BME280;4590;51.462;6.692;2022-09-17T01:43:01;101022.00;;;13.00;67.94
9110;BME280;4590;51.462;6.692;2022-09-17T01:45:11;101036.81;;;13.05;68.00
9110;BME280;4590;51.462;6.692;2022-09-17T01:47:52;101038.06;;;12.98;68.37
9110;BME280;4590;51.462;6.692;2022-09-17T01:50:23;101027.53;;;13.00;68.14
9110;BME280;4590;51.462;6.692;2022-09-17T01:52:52;101023.44;;;12.98;68.21
9110;BME280;4590;51.462;6.692;2022-09-17T01:55:20;101024.47;;;13.02;68.12
9110;BME280;4590;51.462;6.692;2022-09-17T01:58:25;101037.88;;;12.95;69.00
9110;BME280;4590;51.462;6.692;2022-09-17T02:00:57;101039.19;;;12.97;68.45
9110;BME280;4590;51.462;6.692;2022-09-17T02:03:27;101037.44;;;13.02;68.04
9110;BME280;4590;51.462;6.692;2022-09-17T02:05:56;101041.34;;;13.00;68.35
9110;BME280;4590;51.462;6.692;2022-09-17T02:08:25;101036.94;;;12.99;68.17
9110;BME280;4590;51.462;6.692;2022-09-17T02:11:02;101040.34;;;12.96;67.97
9110;BME280;4590;51.462;6.692;2022-09-17T02:13:39;101035.00;;;13.00;68.22
9110;BME280;4590;51.462;6.692;2022-09-17T02:16:26;101042.47;;;12.99;68.67
9110;BME280;4590;51.462;6.692;2022-09-17T02:21:56;101031.78;;;13.07;68.46
9110;BME280;4590;51.462;6.692;2022-09-17T02:27:18;101029.00;;;13.07;68.51
9110;BME280;4590;51.462;6.692;2022-09-17T02:29:46;101036.16;;;13.08;68.38
9110;BME280;4590;51.462;6.692;2022-09-17T02:32:12;101037.66;;;13.05;68.51
9110;BME280;4590;51.462;6.692;2022-09-17T02:34:38;101045.44;;;13.03;68.32
9110;BME280;4590;51.462;6.692;2022-09-17T02:37:04;101039.28;;;12.84;69.94
9110;BME280;4590;51.462;6.692;2022-09-17T02:39:30;101044.41;;;12.99;68.46
9110;BME280;4590;51.462;6.692;2022-09-17T02:42:04;101047.44;;;12.89;68.21
9110;BME280;4590;51.462;6.692;2022-09-17T02:44:43;101063.19;;;12.88;68.12
9110;BME280;4590;51.462;6.692;2022-09-17T02:53:18;101049.94;;;12.77;68.01
9110;BME280;4590;51.462;6.692;2022-09-17T02:56:10;101051.06;;;12.76;68.03
9110;BME280;4590;51.462;6.692;2022-09-17T02:59:34;101051.56;;;12.78;68.00
9110;BME280;4590;51.462;6.692;2022-09-17T03:01:41;101058.72;;;12.79;68.06
9110;BME280;4590;51.462;6.692;2022-09-17T03:04:11;101046.25;;;12.81;68.05
9110;BME280;4590;51.462;6.692;2022-09-17T03:06:37;101053.72;;;12.81;68.10
9110;BME280;4590;51.462;6.692;2022-09-17T03:09:03;101045.72;;;12.79;68.29
9110;BME280;4590;51.462;6.692;2022-09-17T03:11:29;101041.53;;;12.82;68.50
9110;BME280;4590;51.462;6.692;2022-09-17T03:13:55;101052.78;;;12.85;68.21
9110;BME280;4590;51.462;6.692;2022-09-17T03:16:23;101054.09;;;12.88;68.44
9110;BME280;4590;51.462;6.692;2022-09-17T03:18:48;101054.59;;;12.90;68.35
9110;BME280;4590;51.462;6.692;2022-09-17T03:21:13;101057.03;;;12.91;68.45
9110;BME280;4590;51.462;6.692;2022-09-17T03:23:38;101053.63;;;12.94;68.20
9110;BME280;4590;51.462;6.692;2022-09-17T03:26:04;101057.41;;;12.98;68.08
9110;BME280;4590;51.462;6.692;2022-09-17T03:28:29;101053.53;;;12.99;68.14
9110;BME280;4590;51.462;6.692;2022-09-17T03:30:54;101054.34;;;13.00;68.17
9110;BME280;4590;51.462;6.692;2022-09-17T03:33:20;101057.09;;;13.00;68.15
9110;BME280;4590;51.462;6.692;2022-09-17T03:35:45;101058.41;;;13.03;68.29
9110;BME280;4590;51.462;6.692;2022-09-17T03:38:11;101055.34;;;13.04;67.98
9110;BME280;4590;51.462;6.692;2022-09-17T03:40:37;101048.69;;;13.05;68.04
9110;BME280;4590;51.462;6.692;2022-09-17T03:43:03;101051.09;;;13.07;68.05
9110;BME280;4590;51.462;6.692;2022-09-17T03:45:28;101053.88;;;13.07;68.31
9110;BME280;4590;51.462;6.692;2022-09-17T03:47:54;101060.06;;;13.04;68.55
9110;BME280;4590;51.462;6.692;2022-09-17T03:50:20;101071.09;;;13.04;68.41
9110;BME280;4590;51.462;6.692;2022-09-17T03:52:45;101065.88;;;13.02;68.28
9110;BME280;4590;51.462;6.692;2022-09-17T03:55:10;101069.97;;;13.05;68.27
9110;BME280;4590;51.462;6.692;2022-09-17T03:57:36;101076.44;;;13.00;68.43
9110;BME280;4590;51.462;6.692;2022-09-17T04:00:03;101077.25;;;13.00;68.33
9110;BME280;4590;51.462;6.692;2022-09-17T04:02:28;101072.03;;;12.99;68.20
9110;BME280;4590;51.462;6.692;2022-09-17T04:04:54;101094.25;;;12.94;68.53
9110;BME280;4590;51.462;6.692;2022-09-17T04:07:19;101078.69;;;12.98;68.32
9110;BME280;4590;51.462;6.692;2022-09-17T04:09:44;101075.41;;;12.96;68.56
9110;BME280;4590;51.462;6.692;2022-09-17T04:12:09;101079.81;;;12.97;68.67
9110;BME280;4590;51.462;6.692;2022-09-17T04:14:35;101069.91;;;12.96;68.72
9110;BME280;4590;51.462;6.692;2022-09-17T04:17:00;101073.78;;;12.95;68.46
9110;BME280;4590;51.462;6.692;2022-09-17T04:19:25;101075.22;;;12.92;68.67
9110;BME280;4590;51.462;6.692;2022-09-17T04:21:50;101081.88;;;12.91;68.82
9110;BME280;4590;51.462;6.692;2022-09-17T04:24:17;101095.53;;;12.88;68.71
9110;BME280;4590;51.462;6.692;2022-09-17T04:26:42;101098.09;;;12.84;68.88
9110;BME280;4590;51.462;6.692;2022-09-17T04:29:07;101094.50;;;12.84;68.79
9110;BME280;4590;51.462;6.692;2022-09-17T04:31:34;101100.59;;;12.72;70.35
9110;BME280;4590;51.462;6.692;2022-09-17T04:33:59;101087.34;;;12.83;68.81
9110;BME280;4590;51.462;6.692;2022-09-17T04:36:24;101089.28;;;12.82;69.11
9110;BME280;4590;51.462;6.692;2022-09-17T04:38:49;101081.00;;;12.82;69.07
9110;BME280;4590;51.462;6.692;2022-09-17T04:41:15;101077.31;;;12.87;69.48
9110;BME280;4590;51.462;6.692;2022-09-17T04:43:40;101081.41;;;12.89;69.05
9110;BME280;4590;51.462;6.692;2022-09-17T04:46:05;101084.47;;;12.88;68.52
9110;BME280;4590;51.462;6.692;2022-09-17T04:48:30;101085.28;;;12.88;68.58
9110;BME280;4590;51.462;6.692;2022-09-17T04:50:56;101086.72;;;12.86;68.53
9110;BME280;4590;51.462;6.692;2022-09-17T04:53:21;101093.06;;;12.86;68.35
9110;BME280;4590;51.462;6.692;2022-09-17T04:55:46;101091.44;;;12.85;68.22
9110;BME280;4590;51.462;6.692;2022-09-17T04:58:12;101093.69;;;12.83;68.49
9110;BME280;4590;51.462;6.692;2022-09-17T05:00:37;101103.09;;;12.82;68.36
9110;BME280;4590;51.462;6.692;2022-09-17T05:03:03;101093.19;;;12.81;68.20
9110;BME280;4590;51.462;6.692;2022-09-17T05:05:28;101101.09;;;12.74;68.53
9110;BME280;4590;51.462;6.692;2022-09-17T05:07:53;101106.63;;;12.74;68.27
9110;BME280;4590;51.462;6.692;2022-09-17T05:10:20;101110.50;;;12.73;68.35
9110;BME280;4590;51.462;6.692;2022-09-17T05:12:54;101111.94;;;12.71;68.34
9110;BME280;4590;51.462;6.692;2022-09-17T05:15:21;101113.28;;;12.73;68.31
9110;BME280;4590;51.462;6.692;2022-09-17T05:17:46;101107.16;;;12.62;69.25
9110;BME280;4590;51.462;6.692;2022-09-17T05:20:12;101121.34;;;12.70;68.20
9110;BME280;4590;51.462;6.692;2022-09-17T05:22:41;101127.09;;;12.59;69.58
9110;BME280;4590;51.462;6.692;2022-09-17T05:25:07;101128.31;;;12.67;68.57
9110;BME280;4590;51.462;6.692;2022-09-17T05:27:32;101143.75;;;12.68;68.76
9110;BME280;4590;51.462;6.692;2022-09-17T05:29:57;101137.09;;;12.69;68.42
9110;BME280;4590;51.462;6.692;2022-09-17T05:32:23;101133.53;;;12.69;68.48
9110;BME280;4590;51.462;6.692;2022-09-17T05:34:48;101133.22;;;12.70;68.69
9110;BME280;4590;51.462;6.692;2022-09-17T05:37:14;101140.88;;;12.73;68.58
9110;BME280;4590;51.462;6.692;2022-09-17T05:39:39;101129.84;;;12.73;68.49
9110;BME280;4590;51.462;6.692;2022-09-17T05:42:04;101124.00;;;12.75;68.33
9110;BME280;4590;51.462;6.692;2022-09-17T05:44:30;101123.19;;;12.74;68.55
9110;BME280;4590;51.462;6.692;2022-09-17T05:46:55;101124.78;;;12.75;68.27
9110;BME280;4590;51.462;6.692;2022-09-17T05:49:21;101123.34;;;12.78;68.34
9110;BME280;4590;51.462;6.692;2022-09-17T05:51:46;101122.53;;;12.77;68.63
9110;BME280;4590;51.462;6.692;2022-09-17T05:54:12;101128.88;;;12.78;68.60
9110;BME280;4590;51.462;6.692;2022-09-17T05:56:37;101124.19;;;12.78;68.51
9110;BME280;4590;51.462;6.692;2022-09-17T05:59:02;101122.75;;;12.81;68.45
9110;BME280;4590;51.462;6.692;2022-09-17T06:01:28;101135.41;;;12.82;68.46
9110;BME280;4590;51.462;6.692;2022-09-17T06:03:54;101137.88;;;12.83;68.38
9110;BME280;4590;51.462;6.692;2022-09-17T06:06:19;101143.41;;;12.83;68.29
9110;BME280;4590;51.462;6.692;2022-09-17T06:08:44;101148.91;;;12.83;68.33
9110;BME280;4590;51.462;6.692;2022-09-17T06:11:10;101159.97;;;12.83;68.30
9110;BME280;4590;51.462;6.692;2022-09-17T06:13:35;101154.75;;;12.82;68.44
9110;BME280;4590;51.462;6.692;2022-09-17T06:16:01;101162.84;;;12.78;68.66
9110;BME280;4590;51.462;6.692;2022-09-17T06:18:28;101168.56;;;12.82;68.37
9110;BME280;4590;51.462;6.692;2022-09-17T06:21:00;101166.94;;;12.81;68.28
9110;BME280;4590;51.462;6.692;2022-09-17T06:23:27;101176.03;;;12.81;68.24
9110;BME280;4590;51.462;6.692;2022-09-17T06:25:56;101172.69;;;12.71;69.31
9110;BME280;4590;51.462;6.692;2022-09-17T06:28:21;101190.66;;;12.82;68.26
9110;BME280;4590;51.462;6.692;2022-09-17T06:30:47;101179.00;;;12.85;68.12
9110;BME280;4590;51.462;6.692;2022-09-17T06:33:13;101177.03;;;12.85;68.43
9110;BME280;4590;51.462;6.692;2022-09-17T06:35:38;101179.19;;;12.88;68.24
9110;BME280;4590;51.462;6.692;2022-09-17T06:38:04;101184.59;;;12.93;68.40
9110;BME280;4590;51.462;6.692;2022-09-17T06:40:29;101190.00;;;12.98;68.39
9110;BME280;4590;51.462;6.692;2022-09-17T06:42:58;101190.41;;;12.92;68.82
9110;BME280;4590;51.462;6.692;2022-09-17T06:45:24;101190.81;;;12.99;68.37
9110;BME280;4590;51.462;6.692;2022-09-17T06:47:50;101191.63;;;12.99;68.53
9110;BME280;4590;51.462;6.692;2022-09-17T06:50:15;101180.59;;;12.99;68.60
9110;BME280;4590;51.462;6.692;2022-09-17T06:52:51;101183.34;;;12.99;68.33
9110;BME280;4590;51.462;6.692;2022-09-17T06:55:17;101164.38;;;13.07;68.36
9110;BME280;4590;51.462;6.692;2022-09-17T06:57:42;101177.50;;;13.15;68.34
9110;BME280;4590;51.462;6.692;2022-09-17T07:00:09;101162.28;;;13.26;68.58
9110;BME280;4590;51.462;6.692;2022-09-17T07:02:34;101177.50;;;13.37;68.67
9110;BME280;4590;51.462;6.692;2022-09-17T07:05:00;101177.25;;;13.47;68.89
9110;BME280;4590;51.462;6.692;2022-09-17T07:07:26;101185.47;;;13.61;68.51
9110;BME280;4590;51.462;6.692;2022-09-17T07:09:53;101185.88;;;13.77;68.29
9110;BME280;4590;51.462;6.692;2022-09-17T07:12:19;101177.16;;;13.92;67.81
9110;BME280;4590;51.462;6.692;2022-09-17T07:14:44;101175.81;;;14.12;67.59
9110;BME280;4590;51.462;6.692;2022-09-17T07:17:10;101189.84;;;14.24;66.92
9110;BME280;4590;51.462;6.692;2022-09-17T07:19:35;101188.28;;;14.40;66.79
9110;BME280;4590;51.462;6.692;2022-09-17T07:22:01;101190.47;;;14.60;66.18
9110;BME280;4590;51.462;6.692;2022-09-17T07:24:26;101181.38;;;14.77;65.91
9110;BME280;4590;51.462;6.692;2022-09-17T07:26:52;101183.34;;;14.85;65.18
9110;BME280;4590;51.462;6.692;2022-09-17T07:29:17;101180.25;;;14.95;64.65
9110;BME280;4590;51.462;6.692;2022-09-17T07:31:42;101170.97;;;15.00;64.60
9110;BME280;4590;51.462;6.692;2022-09-17T07:34:09;101174.06;;;15.07;64.10
9110;BME280;4590;51.462;6.692;2022-09-17T07:36:34;101174.56;;;15.09;63.63
9110;BME280;4590;51.462;6.692;2022-09-17T07:38:59;101178.63;;;15.12;63.37
9110;BME280;4590;51.462;6.692;2022-09-17T07:41:24;101174.22;;;15.19;63.79
9110;BME280;4590;51.462;6.692;2022-09-17T07:43:51;101171.13;;;15.38;63.58
9110;BME280;4590;51.462;6.692;2022-09-17T07:46:18;101166.53;;;15.59;63.54
9110;BME280;4590;51.462;6.692;2022-09-17T07:48:44;101169.91;;;15.82;63.17
9110;BME280;4590;51.462;6.692;2022-09-17T07:51:18;101169.03;;;15.99;61.85
9110;BME280;4590;51.462;6.692;2022-09-17T07:53:43;101166.00;;;16.21;62.14
9110;BME280;4590;51.462;6.692;2022-09-17T07:56:09;101174.22;;;16.38;61.81
9110;BME280;4590;51.462;6.692;2022-09-17T07:58:34;101171.50;;;16.59;61.22
9110;BME280;4590;51.462;6.692;2022-09-17T08:01:11;101173.53;;;16.79;60.73
9110;BME280;4590;51.462;6.692;2022-09-17T08:03:37;101168.44;;;17.02;60.52
9110;BME280;4590;51.462;6.692;2022-09-17T08:06:15;101165.84;;;17.18;58.72
9110;BME280;4590;51.462;6.692;2022-09-17T08:08:40;101171.06;;;17.40;58.64
9110;BME280;4590;51.462;6.692;2022-09-17T08:11:14;101181.41;;;17.52;57.84
9110;BME280;4590;51.462;6.692;2022-09-17T08:13:40;101168.69;;;17.63;57.42
9110;BME280;4590;51.462;6.692;2022-09-17T08:16:08;101166.94;;;17.92;57.16
9110;BME280;4590;51.462;6.692;2022-09-17T08:18:34;101181.22;;;18.02;56.73
9110;BME280;4590;51.462;6.692;2022-09-17T08:21:01;101170.69;;;18.08;55.21
9110;BME280;4590;51.462;6.692;2022-09-17T08:23:27;101174.41;;;18.24;55.12
9110;BME280;4590;51.462;6.692;2022-09-17T08:25:57;101173.00;;;18.30;54.14
9110;BME280;4590;51.462;6.692;2022-09-17T08:28:24;101164.19;;;18.52;54.01
9110;BME280;4590;51.462;6.692;2022-09-17T08:30:51;101173.38;;;18.65;53.59
9110;BME280;4590;51.462;6.692;2022-09-17T08:33:17;101170.66;;;18.81;53.55
9110;BME280;4590;51.462;6.692;2022-09-17T08:35:50;101192.59;;;18.95;52.24
9110;BME280;4590;51.462;6.692;2022-09-17T08:38:15;101171.63;;;19.13;52.31
9110;BME280;4590;51.462;6.692;2022-09-17T08:40:58;101177.91;;;19.10;50.84
9110;BME280;4590;51.462;6.692;2022-09-17T08:43:27;101179.88;;;19.37;51.34
9110;BME280;4590;51.462;6.692;2022-09-17T08:45:56;101172.09;;;19.43;50.40
9110;BME280;4590;51.462;6.692;2022-09-17T08:48:24;101174.84;;;19.55;50.38
9110;BME280;4590;51.462;6.692;2022-09-17T08:50:54;101171.63;;;19.69;49.64
9110;BME280;4590;51.462;6.692;2022-09-17T08:53:36;101177.91;;;19.50;45.81
9110;BME280;4590;51.462;6.692;2022-09-17T08:56:15;101172.31;;;19.38;47.19
9110;BME280;4590;51.462;6.692;2022-09-17T08:59:01;101183.41;;;19.34;45.96
9110;BME280;4590;51.462;6.692;2022-09-17T09:01:44;101175.75;;;19.31;46.61
9110;BME280;4590;51.462;6.692;2022-09-17T09:07:05;101175.91;;;19.78;48.07
9110;BME280;4590;51.462;6.692;2022-09-17T09:09:45;101183.47;;;19.93;45.04
9110;BME280;4590;51.462;6.692;2022-09-17T09:12:21;101172.84;;;20.15;46.39
9110;BME280;4590;51.462;6.692;2022-09-17T09:17:21;101183.06;;;20.39;46.44
9110;BME280;4590;51.462;6.692;2022-09-17T09:19:47;101178.63;;;20.38;45.61
9110;BME280;4590;51.462;6.692;2022-09-17T09:30:16;101187.19;;;20.29;44.99
9110;BME280;4590;51.462;6.692;2022-09-17T09:33:03;101174.09;;;20.17;43.75
9110;BME280;4590;51.462;6.692;2022-09-17T09:35:34;101182.75;;;19.96;44.20
9110;BME280;4590;51.462;6.692;2022-09-17T09:40:40;101174.38;;;19.81;43.69
9110;BME280;4590;51.462;6.692;2022-09-17T09:43:16;101179.41;;;19.75;43.14
9110;BME280;4590;51.462;6.692;2022-09-17T09:46:03;101176.06;;;19.85;43.71
9110;BME280;4590;51.462;6.692;2022-09-17T09:57:13;101172.22;;;20.06;44.13
9110;BME280;4590;51.462;6.692;2022-09-17T09:59:39;101172.81;;;19.99;45.93
9110;BME280;4590;51.462;6.692;2022-09-17T10:02:05;101168.78;;;19.81;46.56
9110;BME280;4590;51.462;6.692;2022-09-17T10:04:31;101175.41;;;19.60;47.00
9110;BME280;4590;51.462;6.692;2022-09-17T10:07:05;101174.31;;;19.37;46.32
9110;BME280;4590;51.462;6.692;2022-09-17T10:09:32;101168.38;;;19.39;47.83
9110;BME280;4590;51.462;6.692;2022-09-17T10:14:41;101156.50;;;19.14;47.95
9110;BME280;4590;51.462;6.692;2022-09-17T10:17:24;101161.03;;;19.18;48.89
9110;BME280;4590;51.462;6.692;2022-09-17T10:22:33;101153.06;;;19.33;46.78
9110;BME280;4590;51.462;6.692;2022-09-17T10:25:00;101163.38;;;19.16;47.85
9110;BME280;4590;51.462;6.692;2022-09-17T10:27:27;101156.75;;;19.09;48.85
9110;BME280;4590;51.462;6.692;2022-09-17T10:30:22;101155.75;;;18.89;49.07
9110;BME280;4590;51.462;6.692;2022-09-17T10:35:38;101148.13;;;18.74;51.31
9110;BME280;4590;51.462;6.692;2022-09-17T10:38:03;101147.84;;;18.91;50.70
9110;BME280;4590;51.462;6.692;2022-09-17T10:40:30;101151.75;;;19.14;50.61
9110;BME280;4590;51.462;6.692;2022-09-17T10:45:43;101142.50;;;19.54;49.63
9110;BME280;4590;51.462;6.692;2022-09-17T10:48:17;101134.88;;;19.51;47.85
9110;BME280;4590;51.462;6.692;2022-09-17T10:50:48;101141.00;;;19.72;47.65
9110;BME280;4590;51.462;6.692;2022-09-17T10:53:16;101129.34;;;19.98;47.53
9110;BME280;4590;51.462;6.692;2022-09-17T10:55:57;101130.13;;;20.30;46.71
9110;BME280;4590;51.462;6.692;2022-09-17T10:58:34;101129.00;;;20.50;46.56
9110;BME280;4590;51.462;6.692;2022-09-17T11:09:35;101182.13;;;20.35;40.64
9110;BME280;4590;51.462;6.692;2022-09-17T11:12:26;101185.94;;;19.51;41.37
9110;BME280;4590;51.462;6.692;2022-09-17T11:15:02;101187.44;;;19.37;44.71
9110;BME280;4590;51.462;6.692;2022-09-17T11:26:28;101207.75;;;17.87;48.94
9110;BME280;4590;51.462;6.692;2022-09-17T11:32:09;101212.59;;;17.45;49.66
9110;BME280;4590;51.462;6.692;2022-09-17T11:34:44;101200.78;;;17.28;50.01
9110;BME280;4590;51.462;6.692;2022-09-17T11:37:24;101204.47;;;16.99;50.35
9110;BME280;4590;51.462;6.692;2022-09-17T11:40:05;101203.97;;;16.97;51.09
9110;BME280;4590;51.462;6.692;2022-09-17T11:45:35;101203.03;;;16.93;52.18
9110;BME280;4590;51.462;6.692;2022-09-17T11:48:23;101203.94;;;16.76;54.58
9110;BME280;4590;51.462;6.692;2022-09-17T11:50:56;101210.31;;;16.76;53.67
9110;BME280;4590;51.462;6.692;2022-09-17T11:53:33;101203.66;;;16.69;54.11
9110;BME280;4590;51.462;6.692;2022-09-17T11:56:04;101208.44;;;16.60;53.75
9110;BME280;4590;51.462;6.692;2022-09-17T12:01:37;101213.34;;;16.25;55.54
9110;BME280;4590;51.462;6.692;2022-09-17T12:09:50;101213.84;;;15.63;57.52
9110;BME280;4590;51.462;6.692;2022-09-17T12:12:21;101191.47;;;15.51;58.16
9110;BME280;4590;51.462;6.692;2022-09-17T12:14:58;101178.28;;;15.39;58.81
9110;BME280;4590;51.462;6.692;2022-09-17T12:17:33;101172.75;;;15.39;58.56
9110;BME280;4590;51.462;6.692;2022-09-17T12:20:06;101170.28;;;15.29;58.92
9110;BME280;4590;51.462;6.692;2022-09-17T12:22:36;101168.00;;;15.31;59.43
9110;BME280;4590;51.462;6.692;2022-09-17T12:25:03;101168.50;;;15.33;60.01
9110;BME280;4590;51.462;6.692;2022-09-17T12:27:49;101172.59;;;15.35;60.79
9110;BME280;4590;51.462;6.692;2022-09-17T12:30:19;101165.75;;;15.41;60.73
9110;BME280;4590;51.462;6.692;2022-09-17T12:41:44;101152.31;;;15.43;62.21
9110;BME280;4590;51.462;6.692;2022-09-17T12:50:00;101128.19;;;15.53;64.25
9110;BME280;4590;51.462;6.692;2022-09-17T12:58:25;101141.50;;;15.85;61.79
9110;BME280;4590;51.462;6.692;2022-09-17T13:01:02;101149.50;;;15.87;61.38
9110;BME280;4590;51.462;6.692;2022-09-17T13:03:33;101125.28;;;15.96;61.20
9110;BME280;4590;51.462;6.692;2022-09-17T13:11:05;101112.63;;;16.16;62.15
9110;BME280;4590;51.462;6.692;2022-09-17T13:16:33;101120.41;;;16.22;61.40
9110;BME280;4590;51.462;6.692;2022-09-17T13:21:52;101097.16;;;16.35;59.44
9110;BME280;4590;51.462;6.692;2022-09-17T13:24:22;101101.84;;;16.43;59.53
9110;BME280;4590;51.462;6.692;2022-09-17T13:26:50;101104.19;;;16.54;59.20
9110;BME280;4590;51.462;6.692;2022-09-17T13:32:07;101131.56;;;16.72;57.86
9110;BME280;4590;51.462;6.692;2022-09-17T13:34:32;101182.53;;;16.76;58.34
9110;BME280;4590;51.462;6.692;2022-09-17T13:37:01;101189.16;;;16.55;59.01
9110;BME280;4590;51.462;6.692;2022-09-17T13:39:45;101191.59;;;16.35;58.50
9110;BME280;4590;51.462;6.692;2022-09-17T13:42:22;101170.94;;;16.16;58.71
9110;BME280;4590;51.462;6.692;2022-09-17T13:47:30;101162.22;;;15.88;58.72
9110;BME280;4590;51.462;6.692;2022-09-17T13:50:09;101147.38;;;15.75;59.61
9110;BME280;4590;51.462;6.692;2022-09-17T13:52:44;101149.53;;;15.69;60.06
9110;BME280;4590;51.462;6.692;2022-09-17T13:55:33;101152.66;;;15.59;62.39
9110;BME280;4590;51.462;6.692;2022-09-17T13:58:02;101150.84;;;15.63;60.19
9110;BME280;4590;51.462;6.692;2022-09-17T14:19:03;101151.34;;;15.48;62.18
9110;BME280;4590;51.462;6.692;2022-09-17T14:21:31;101140.41;;;15.52;62.52
9110;BME280;4590;51.462;6.692;2022-09-17T14:24:00;101138.63;;;15.47;62.28
9110;BME280;4590;51.462;6.692;2022-09-17T14:26:47;101145.97;;;15.43;63.43
9110;BME280;4590;51.462;6.692;2022-09-17T14:31:44;101141.72;;;15.54;62.70
9110;BME280;4590;51.462;6.692;2022-09-17T14:34:18;101134.22;;;15.55;62.74
9110;BME280;4590;51.462;6.692;2022-09-17T14:36:46;101136.50;;;15.61;62.25
9110;BME280;4590;51.462;6.692;2022-09-17T14:39:21;101133.94;;;15.56;63.23
9110;BME280;4590;51.462;6.692;2022-09-17T14:41:47;101135.69;;;15.61;62.81
9110;BME280;4590;51.462;6.692;2022-09-17T14:44:23;101138.47;;;15.61;62.75
9110;BME280;4590;51.462;6.692;2022-09-17T14:47:00;101132.09;;;15.60;62.09
9110;BME280;4590;51.462;6.692;2022-09-17T14:49:36;101143.38;;;15.55;62.56
9110;BME280;4590;51.462;6.692;2022-09-17T14:52:29;101136.84;;;15.51;61.54
9110;BME280;4590;51.462;6.692;2022-09-17T14:55:17;101130.47;;;15.51;60.50
9110;BME280;4590;51.462;6.692;2022-09-17T14:57:45;101131.44;;;15.63;60.29
9110;BME280;4590;51.462;6.692;2022-09-17T15:00:20;101123.13;;;15.63;59.57
9110;BME280;4590;51.462;6.692;2022-09-17T15:02:52;101128.66;;;15.63;58.03
9110;BME280;4590;51.462;6.692;2022-09-17T15:05:26;101121.81;;;15.69;58.54
9110;BME280;4590;51.462;6.692;2022-09-17T15:10:56;101136.00;;;15.68;58.56
9110;BME280;4590;51.462;6.692;2022-09-17T15:13:28;101135.63;;;15.78;58.50
9110;BME280;4590;51.462;6.692;2022-09-17T15:16:01;101138.09;;;15.79;58.95
9110;BME280;4590;51.462;6.692;2022-09-17T15:18:49;101135.97;;;15.76;60.20
9110;BME280;4590;51.462;6.692;2022-09-17T15:26:56;101138.53;;;15.90;57.75
9110;BME280;4590;51.462;6.692;2022-09-17T15:29:26;101137.03;;;15.93;57.62
9110;BME280;4590;51.462;6.692;2022-09-17T15:31:53;101154.34;;;15.98;57.57
9110;BME280;4590;51.462;6.692;2022-09-17T15:34:18;101150.31;;;15.87;57.22
9110;BME280;4590;51.462;6.692;2022-09-17T15:37:24;101149.19;;;15.79;55.74
9110;BME280;4590;51.462;6.692;2022-09-17T15:39:51;101146.81;;;15.99;56.61
9110;BME280;4590;51.462;6.692;2022-09-17T15:42:21;101146.16;;;16.02;56.12
9110;BME280;4590;51.462;6.692;2022-09-17T15:44:48;101142.47;;;15.89;55.97
9110;BME280;4590;51.462;6.692;2022-09-17T15:47:33;101141.97;;;15.87;54.84
9110;BME280;4590;51.462;6.692;2022-09-17T15:50:17;101139.72;;;15.81;54.07
9110;BME280;4590;51.462;6.692;2022-09-17T15:52:43;101153.22;;;15.91;55.38
9110;BME280;4590;51.462;6.692;2022-09-17T15:55:38;101171.97;;;15.94;55.03
9110;BME280;4590;51.462;6.692;2022-09-17T15:58:21;101186.09;;;15.63;53.59
9110;BME280;4590;51.462;6.692;2022-09-17T16:08:44;101177.00;;;15.36;54.81
9110;BME280;4590;51.462;6.692;2022-09-17T16:11:12;101177.47;;;15.30;55.18
9110;BME280;4590;51.462;6.692;2022-09-17T16:13:37;101186.44;;;15.27;55.79
9110;BME280;4590;51.462;6.692;2022-09-17T16:16:03;101186.13;;;15.28;55.49
9110;BME280;4590;51.462;6.692;2022-09-17T16:18:28;101164.44;;;15.22;55.29
9110;BME280;4590;51.462;6.692;2022-09-17T16:20:53;101178.81;;;15.24;54.88